createdAt,value
2022-08-14T00:00:54.794Z,953.15
2022-08-14T00:01:55.736Z,953.18
2022-08-14T00:02:54.782Z,953.17
2022-08-14T00:03:54.771Z,953.15
2022-08-14T00:04:54.767Z,953.16
2022-08-14T00:05:58.311Z,953.22
2022-08-14T00:06:54.752Z,953.21
2022-08-14T00:07:55.833Z,953.2
2022-08-14T00:08:54.736Z,953.16
2022-08-14T00:09:55.435Z,953.19
2022-08-14T00:11:01.718Z,953.15
2022-08-14T00:12:02.255Z,953.16
2022-08-14T00:13:06.912Z,953.16
2022-08-14T00:14:05.430Z,953.16
2022-08-14T00:15:05.420Z,953.15
2022-08-14T00:16:05.414Z,953.16
2022-08-14T00:17:05.407Z,953.16
2022-08-14T00:18:05.401Z,953.13
2022-08-14T00:19:23.932Z,953.09
2022-08-14T00:20:30.199Z,953.11
2022-08-14T00:21:28.165Z,953.08
2022-08-14T00:22:44.709Z,953.12
2022-08-14T00:23:25.578Z,953.13
2022-08-14T00:24:28.789Z,953.13
2022-08-14T00:25:25.564Z,953.13
2022-08-14T00:26:26.821Z,953.12
2022-08-14T00:27:27.054Z,953.13
2022-08-14T00:28:29.200Z,953.15
2022-08-14T00:29:27.207Z,953.14
2022-08-14T00:30:27.089Z,953.12
2022-08-14T00:31:34.690Z,953.12
2022-08-14T00:32:57.926Z,953.13
2022-08-14T00:34:35.818Z,953.12
2022-08-14T00:35:01.353Z,953.1
2022-08-14T00:36:34.812Z,953.13
2022-08-14T00:37:03.183Z,953.1
2022-08-14T00:38:03.170Z,953.15
2022-08-14T00:39:03.163Z,953.17
2022-08-14T00:40:03.210Z,953.12
2022-08-14T00:41:03.163Z,953.12
2022-08-14T00:42:03.143Z,953.13
2022-08-14T00:43:03.243Z,953.1
2022-08-14T00:44:03.127Z,953.1
2022-08-14T00:45:03.120Z,953.09
2022-08-14T00:46:03.119Z,953.04
2022-08-14T00:47:03.107Z,953.03
2022-08-14T00:48:03.099Z,953.05
2022-08-14T00:49:03.094Z,953.04
2022-08-14T00:50:03.083Z,953.02
2022-08-14T00:51:03.076Z,953.03
2022-08-14T00:52:03.068Z,953.04
2022-08-14T00:53:03.062Z,953.01
2022-08-14T00:54:03.056Z,953.01
2022-08-14T00:55:03.046Z,953.04
2022-08-14T00:56:06.984Z,953.02
2022-08-14T00:57:03.033Z,953.01
2022-08-14T00:58:03.022Z,953
2022-08-14T00:59:03.016Z,953.01
2022-08-14T01:00:03.007Z,953.04
2022-08-14T01:01:03.055Z,953.06
2022-08-14T01:02:02.992Z,953.11
2022-08-14T01:03:02.986Z,953.1
2022-08-14T01:04:02.997Z,953.13
2022-08-14T01:05:02.970Z,953.17
2022-08-14T01:06:02.961Z,953.12
2022-08-14T01:07:04.879Z,953.11
2022-08-14T01:08:03.291Z,953.1
2022-08-14T01:09:03.533Z,953.12
2022-08-14T01:10:03.523Z,953.09
2022-08-14T01:11:03.516Z,953.12
2022-08-14T01:12:03.757Z,953.1
2022-08-14T01:13:03.501Z,953.12
2022-08-14T01:14:04.902Z,953.11
2022-08-14T01:15:03.484Z,953.08
2022-08-14T01:16:03.479Z,953.09
2022-08-14T01:17:03.468Z,953.08
2022-08-14T01:18:03.463Z,953.09
2022-08-14T01:19:03.457Z,953.09
2022-08-14T01:20:04.003Z,953.08
2022-08-14T01:21:03.995Z,953.04
2022-08-14T01:22:03.990Z,953
2022-08-14T01:23:03.978Z,952.96
2022-08-14T01:24:03.973Z,952.95
2022-08-14T01:25:03.963Z,952.95
2022-08-14T01:26:04.522Z,952.96
2022-08-14T01:27:03.949Z,952.89
2022-08-14T01:28:03.943Z,952.92
2022-08-14T01:29:03.950Z,952.93
2022-08-14T01:30:04.965Z,952.88
2022-08-14T01:31:04.862Z,952.85
2022-08-14T01:32:04.855Z,952.84
2022-08-14T01:33:04.845Z,952.86
2022-08-14T01:35:16.344Z,952.85
2022-08-14T01:36:27.354Z,952.83
2022-08-14T01:37:27.348Z,952.78
2022-08-14T01:38:27.339Z,952.77
2022-08-14T01:39:27.359Z,952.79
2022-08-14T01:40:32.983Z,952.81
2022-08-14T01:41:29.718Z,952.79
2022-08-14T01:42:31.687Z,952.81
2022-08-14T01:43:27.302Z,952.72
2022-08-14T01:44:31.477Z,952.74
2022-08-14T01:45:27.288Z,952.73
2022-08-14T01:46:33.307Z,952.78
2022-08-14T01:47:27.273Z,952.78
2022-08-14T01:48:27.264Z,952.76
2022-08-14T01:49:27.257Z,952.78
2022-08-14T01:50:27.248Z,952.8
2022-08-14T01:51:27.244Z,952.85
2022-08-14T01:52:33.834Z,952.86
2022-08-14T01:53:28.020Z,952.83
2022-08-14T01:54:37.749Z,952.82
2022-08-14T01:55:27.212Z,952.78
2022-08-14T01:56:27.202Z,952.78
2022-08-14T01:57:34.049Z,952.77
2022-08-14T01:58:33.529Z,952.73
2022-08-14T01:59:37.787Z,952.74
2022-08-14T02:00:36.252Z,952.72
2022-08-14T02:01:33.492Z,952.73
2022-08-14T02:02:36.700Z,952.71
2022-08-14T02:03:33.463Z,952.71
2022-08-14T02:04:41.041Z,952.72
2022-08-14T02:05:35.005Z,952.74
2022-08-14T02:06:33.808Z,952.7
2022-08-14T02:07:34.794Z,952.67
2022-08-14T02:08:55.194Z,952.62
2022-08-14T02:09:55.579Z,952.63
2022-08-14T02:10:53.979Z,952.63
2022-08-14T02:11:54.479Z,952.66
2022-08-14T02:12:57.169Z,952.63
2022-08-14T02:13:53.955Z,952.68
2022-08-14T02:14:59.278Z,952.7
2022-08-14T02:15:53.940Z,952.66
2022-08-14T02:16:54.256Z,952.73
2022-08-14T02:17:53.925Z,952.74
2022-08-14T02:18:53.917Z,952.71
2022-08-14T02:19:53.915Z,952.71
2022-08-14T02:20:53.902Z,952.7
2022-08-14T02:21:53.895Z,952.71
2022-08-14T02:22:54.651Z,952.69
2022-08-14T02:23:53.898Z,952.65
2022-08-14T02:24:53.873Z,952.65
2022-08-14T02:25:54.326Z,952.62
2022-08-14T02:28:19.605Z,952.62
2022-08-14T02:29:11.554Z,952.62
2022-08-14T02:30:11.547Z,952.61
2022-08-14T02:31:11.537Z,952.6
2022-08-14T02:32:19.952Z,952.6
2022-08-14T02:33:11.527Z,952.58
2022-08-14T02:34:14.621Z,952.58
2022-08-14T02:35:11.510Z,952.56
2022-08-14T02:37:03.072Z,952.58
2022-08-14T02:37:21.650Z,952.57
2022-08-14T02:38:29.818Z,952.54
2022-08-14T02:39:21.666Z,952.58
2022-08-14T02:40:31.981Z,952.52
2022-08-14T02:41:21.620Z,952.48
2022-08-14T02:42:23.502Z,952.47
2022-08-14T02:43:22.494Z,952.49
2022-08-14T02:44:29.638Z,952.42
2022-08-14T02:45:21.590Z,952.44
2022-08-14T02:46:27.055Z,952.43
2022-08-14T02:47:21.576Z,952.4
2022-08-14T02:49:02.318Z,952.42
2022-08-14T02:49:26.770Z,952.38
2022-08-14T02:50:26.909Z,952.39
2022-08-14T02:51:30.340Z,952.42
2022-08-14T02:52:56.977Z,952.44
2022-08-14T02:53:26.741Z,952.46
2022-08-14T02:54:26.733Z,952.47
2022-08-14T02:55:26.726Z,952.47
2022-08-14T02:56:29.832Z,952.45
2022-08-14T02:58:05.780Z,952.43
2022-08-14T02:59:05.432Z,952.44
2022-08-14T03:00:03.327Z,952.45
2022-08-14T03:01:03.345Z,952.45
2022-08-14T03:02:03.420Z,952.44
2022-08-14T03:03:09.663Z,952.4
2022-08-14T03:04:09.580Z,952.43
2022-08-14T03:05:09.571Z,952.45
2022-08-14T03:06:09.566Z,952.43
2022-08-14T03:07:09.568Z,952.47
2022-08-14T03:08:09.556Z,952.43
2022-08-14T03:09:09.541Z,952.41
2022-08-14T03:10:24.939Z,952.43
2022-08-14T03:11:09.530Z,952.42
2022-08-14T03:12:09.522Z,952.38
2022-08-14T03:13:13.850Z,952.39
2022-08-14T03:14:09.506Z,952.41
2022-08-14T03:15:13.786Z,952.38
2022-08-14T03:16:20.243Z,952.42
2022-08-14T03:17:09.483Z,952.46
2022-08-14T03:18:09.476Z,952.47
2022-08-14T03:19:09.469Z,952.49
2022-08-14T03:20:11.168Z,952.47
2022-08-14T03:21:09.451Z,952.52
2022-08-14T03:22:09.465Z,952.48
2022-08-14T03:23:09.440Z,952.45
2022-08-14T03:24:16.648Z,952.42
2022-08-14T03:25:09.963Z,952.42
2022-08-14T03:26:12.788Z,952.38
2022-08-14T03:27:09.406Z,952.39
2022-08-14T03:28:14.511Z,952.44
2022-08-14T03:29:09.898Z,952.43
2022-08-14T03:30:14.398Z,952.47
2022-08-14T03:31:13.123Z,952.45
2022-08-14T03:32:09.370Z,952.41
2022-08-14T03:49:23.965Z,952.37
2022-08-14T03:50:27.722Z,952.42
2022-08-14T03:51:21.704Z,952.39
2022-08-14T03:52:38.020Z,952.37
2022-08-14T03:53:21.696Z,952.39
2022-08-14T03:54:21.671Z,952.38
2022-08-14T03:55:21.662Z,952.4
2022-08-14T03:56:21.650Z,952.37
2022-08-14T03:57:22.686Z,952.36
2022-08-14T03:58:23.555Z,952.31
2022-08-14T03:59:21.623Z,952.31
2022-08-14T04:00:40.977Z,952.27
2022-08-14T04:01:21.638Z,952.24
2022-08-14T04:02:32.151Z,952.23
2022-08-14T04:03:23.456Z,952.22
2022-08-14T04:04:21.576Z,952.21
2022-08-14T04:05:21.570Z,952.19
2022-08-14T04:06:21.559Z,952.2
2022-08-14T04:07:21.552Z,952.2
2022-08-14T04:08:23.362Z,952.17
2022-08-14T04:09:21.536Z,952.17
2022-08-14T04:10:26.393Z,952.18
2022-08-14T04:11:21.518Z,952.21
2022-08-14T04:12:26.077Z,952.21
2022-08-14T04:13:21.502Z,952.21
2022-08-14T04:14:21.490Z,952.24
2022-08-14T04:15:23.505Z,952.21
2022-08-14T04:16:21.474Z,952.22
2022-08-14T04:17:21.469Z,952.24
2022-08-14T04:18:21.459Z,952.19
2022-08-14T04:19:21.506Z,952.2
2022-08-14T04:20:25.393Z,952.19
2022-08-14T04:21:21.434Z,952.19
2022-08-14T04:22:21.950Z,952.19
2022-08-14T04:23:23.510Z,952.16
2022-08-14T04:24:21.418Z,952.13
2022-08-14T04:25:21.402Z,952.16
2022-08-14T04:26:27.103Z,952.14
2022-08-14T04:27:21.387Z,952.17
2022-08-14T04:29:01.729Z,952.14
2022-08-14T04:29:26.925Z,952.14
2022-08-14T04:30:30.881Z,952.15
2022-08-14T04:32:57.070Z,952.14
2022-08-14T04:33:27.696Z,952.13
2022-08-14T04:34:27.912Z,952.1
2022-08-14T04:35:27.695Z,952.1
2022-08-14T04:36:27.349Z,952.11
2022-08-14T04:37:27.338Z,952.05
2022-08-14T04:38:35.841Z,952.04
2022-08-14T04:39:27.362Z,952.04
2022-08-14T04:40:27.853Z,952.02
2022-08-14T04:41:30.437Z,952.04
2022-08-14T04:42:27.298Z,952.03
2022-08-14T04:43:38.392Z,951.99
2022-08-14T04:44:36.642Z,951.98
2022-08-14T04:45:29.490Z,951.99
2022-08-14T04:46:54.931Z,951.94
2022-08-14T04:47:27.264Z,951.95
2022-08-14T04:48:36.837Z,951.97
2022-08-14T04:49:27.251Z,951.93
2022-08-14T04:50:33.970Z,951.96
2022-08-14T04:51:27.236Z,951.96
2022-08-14T04:52:27.225Z,951.92
2022-08-14T04:53:35.147Z,951.94
2022-08-14T04:54:27.210Z,951.91
2022-08-14T04:55:27.694Z,951.92
2022-08-14T04:56:30.431Z,951.92
2022-08-14T04:57:27.190Z,951.92
2022-08-14T04:58:32.040Z,951.9
2022-08-14T04:59:27.175Z,951.84
2022-08-14T05:00:27.166Z,951.87
2022-08-14T05:01:27.205Z,951.81
2022-08-14T05:02:27.194Z,951.85
2022-08-14T05:03:27.145Z,951.88
2022-08-14T05:04:27.137Z,951.84
2022-08-14T05:05:27.130Z,951.88
2022-08-14T05:06:37.432Z,951.84
2022-08-14T05:07:34.035Z,951.81
2022-08-14T05:08:59.838Z,951.82
2022-08-14T05:09:58.948Z,951.81
2022-08-14T05:10:58.938Z,951.79
2022-08-14T05:12:00.720Z,951.77
2022-08-14T05:14:16.342Z,951.71
2022-08-14T05:15:05.035Z,951.7
2022-08-14T05:16:05.026Z,951.65
2022-08-14T05:17:05.022Z,951.66
2022-08-14T05:18:17.124Z,951.64
2022-08-14T05:21:04.690Z,951.62
2022-08-14T05:22:28.547Z,951.61
2022-08-14T05:23:28.542Z,951.61
2022-08-14T05:24:28.534Z,951.6
2022-08-14T05:25:30.606Z,951.62
2022-08-14T05:26:28.518Z,951.56
2022-08-14T05:27:31.128Z,951.57
2022-08-14T05:28:28.506Z,951.56
2022-08-14T05:29:28.499Z,951.51
2022-08-14T05:30:28.491Z,951.5
2022-08-14T05:31:30.181Z,951.52
2022-08-14T05:32:28.582Z,951.5
2022-08-14T05:33:28.481Z,951.49
2022-08-14T05:34:28.696Z,951.49
2022-08-14T05:35:28.460Z,951.47
2022-08-14T05:36:28.453Z,951.44
2022-08-14T05:37:28.523Z,951.42
2022-08-14T05:38:31.411Z,951.39
2022-08-14T05:39:28.466Z,951.45
2022-08-14T05:40:28.426Z,951.46
2022-08-14T05:41:40.057Z,951.44
2022-08-14T05:42:29.559Z,951.47
2022-08-14T05:43:33.086Z,951.43
2022-08-14T05:44:30.358Z,951.46
2022-08-14T05:45:28.392Z,951.47
2022-08-14T05:46:28.389Z,951.49
2022-08-14T05:47:28.853Z,951.5
2022-08-14T05:48:33.202Z,951.48
2022-08-14T05:49:32.920Z,951.54
2022-08-14T05:50:29.211Z,951.52
2022-08-14T05:51:28.356Z,951.47
2022-08-14T05:52:38.893Z,951.47
2022-08-14T05:53:28.342Z,951.45
2022-08-14T05:54:31.386Z,951.43
2022-08-14T05:55:28.933Z,951.42
2022-08-14T05:56:29.038Z,951.37
2022-08-14T05:57:28.922Z,951.4
2022-08-14T05:58:33.747Z,951.37
2022-08-14T05:59:30.220Z,951.37
2022-08-14T06:00:30.780Z,951.38
2022-08-14T06:01:31.697Z,951.31
2022-08-14T06:02:28.893Z,951.37
2022-08-14T06:03:28.885Z,951.37
2022-08-14T06:04:28.881Z,951.37
2022-08-14T06:05:29.405Z,951.36
2022-08-14T06:06:29.655Z,951.38
2022-08-14T06:07:28.863Z,951.32
2022-08-14T06:08:31.560Z,951.27
2022-08-14T06:09:28.849Z,951.32
2022-08-14T06:10:29.001Z,951.31
2022-08-14T06:11:30.882Z,951.3
2022-08-14T06:12:31.181Z,951.31
2022-08-14T06:13:31.425Z,951.32
2022-08-14T06:14:28.823Z,951.33
2022-08-14T06:15:30.184Z,951.34
2022-08-14T06:16:28.813Z,951.34
2022-08-14T06:17:28.805Z,951.34
2022-08-14T06:18:31.960Z,951.39
2022-08-14T06:19:28.795Z,951.36
2022-08-14T06:20:28.879Z,951.34
2022-08-14T06:21:28.782Z,951.34
2022-08-14T06:22:28.781Z,951.29
2022-08-14T06:23:28.773Z,951.32
2022-08-14T06:24:30.351Z,951.27
2022-08-14T06:25:28.762Z,951.24
2022-08-14T06:26:30.084Z,951.22
2022-08-14T06:27:33.874Z,951.21
2022-08-14T06:28:28.756Z,951.19
2022-08-14T06:29:32.279Z,951.2
2022-08-14T06:30:30.219Z,951.17
2022-08-14T06:31:28.732Z,951.19
2022-08-14T06:32:36.314Z,951.18
2022-08-14T06:33:30.246Z,951.21
2022-08-14T06:35:21.589Z,951.26
2022-08-14T06:36:21.586Z,951.25
2022-08-14T06:37:21.580Z,951.23
2022-08-14T06:38:21.616Z,951.22
2022-08-14T06:39:36.185Z,951.22
2022-08-14T06:40:25.817Z,951.21
2022-08-14T06:41:36.030Z,951.21
2022-08-14T06:42:36.762Z,951.17
2022-08-14T06:43:36.755Z,951.14
2022-08-14T06:44:36.752Z,951.14
2022-08-14T06:45:36.748Z,951.17
2022-08-14T06:46:37.142Z,951.15
2022-08-14T06:47:36.739Z,951.12
2022-08-14T06:48:36.741Z,951.1
2022-08-14T06:49:40.217Z,951.07
2022-08-14T06:50:36.727Z,951.05
2022-08-14T06:51:39.090Z,951.03
2022-08-14T06:52:36.717Z,951.07
2022-08-14T06:53:36.712Z,951.06
2022-08-14T06:54:36.711Z,950.97
2022-08-14T06:55:36.869Z,951.01
2022-08-14T06:56:36.703Z,950.99
2022-08-14T06:57:36.705Z,950.97
2022-08-14T06:58:36.696Z,951.04
2022-08-14T06:59:36.691Z,950.97
2022-08-14T07:00:36.690Z,950.98
2022-08-14T07:01:36.696Z,950.96
2022-08-14T07:02:36.718Z,951.01
2022-08-14T07:03:36.682Z,950.92
2022-08-14T07:04:36.681Z,950.96
2022-08-14T07:05:36.679Z,950.96
2022-08-14T07:06:45.880Z,951
2022-08-14T07:07:36.676Z,950.97
2022-08-14T07:08:36.677Z,951.04
2022-08-14T07:09:40.808Z,951.03
2022-08-14T07:10:36.677Z,951.04
2022-08-14T07:11:36.677Z,951.09
2022-08-14T07:12:55.259Z,951.11
2022-08-14T07:13:36.676Z,951.1
2022-08-14T07:14:36.679Z,951.14
2022-08-14T07:15:39.549Z,951.17
2022-08-14T07:16:36.683Z,951.14
2022-08-14T07:17:36.681Z,951.12
2022-08-14T07:18:36.685Z,951.15
2022-08-14T07:19:36.685Z,951.13
2022-08-14T07:20:36.689Z,951.15
2022-08-14T07:21:36.692Z,951.13
2022-08-14T07:22:57.990Z,951.12
2022-08-14T07:23:40.059Z,951.12
2022-08-14T07:24:36.699Z,951.16
2022-08-14T07:25:37.415Z,951.19
2022-08-14T07:26:38.695Z,951.17
2022-08-14T07:27:36.713Z,951.14
2022-08-14T07:28:42.964Z,951.18
2022-08-14T07:29:36.720Z,951.17
2022-08-14T07:30:36.742Z,951.18
2022-08-14T07:31:36.730Z,951.18
2022-08-14T07:32:36.732Z,951.14
2022-08-14T07:33:36.741Z,951.11
2022-08-14T07:34:41.055Z,951.2
2022-08-14T07:35:37.449Z,951.26
2022-08-14T07:36:36.752Z,951.26
2022-08-14T07:37:36.760Z,951.24
2022-08-14T07:38:37.760Z,951.29
2022-08-14T07:39:36.823Z,951.17
2022-08-14T07:40:36.773Z,950.91
2022-08-14T07:41:36.781Z,950.81
2022-08-14T07:42:36.785Z,950.81
2022-08-14T07:43:36.790Z,950.81
2022-08-14T07:44:46.104Z,950.81
2022-08-14T07:45:36.801Z,950.81
2022-08-14T07:46:36.806Z,950.79
2022-08-14T07:47:36.812Z,950.85
2022-08-14T07:48:36.816Z,950.88
2022-08-14T07:49:36.821Z,950.82
2022-08-14T07:50:37.261Z,950.85
2022-08-14T07:51:37.214Z,950.86
2022-08-14T07:52:36.836Z,950.85
2022-08-14T07:53:39.384Z,950.9
2022-08-14T07:54:36.845Z,950.87
2022-08-14T07:55:36.851Z,950.85
2022-08-14T07:56:48.387Z,950.83
2022-08-14T07:57:45.089Z,950.83
2022-08-14T07:58:51.182Z,950.82
2022-08-14T07:59:47.002Z,950.86
2022-08-14T08:00:45.099Z,950.84
2022-08-14T08:01:47.897Z,950.77
2022-08-14T08:02:45.246Z,950.8
2022-08-14T08:03:45.112Z,950.77
2022-08-14T08:04:45.112Z,950.75
2022-08-14T08:05:45.116Z,950.76
2022-08-14T08:06:45.118Z,950.79
2022-08-14T08:07:45.122Z,950.78
2022-08-14T08:08:45.124Z,950.84
2022-08-14T08:09:45.805Z,950.85
2022-08-14T08:10:47.007Z,950.82
2022-08-14T08:11:45.132Z,950.85
2022-08-14T08:12:45.266Z,950.86
2022-08-14T08:13:48.955Z,950.8
2022-08-14T08:14:55.846Z,950.78
2022-08-14T08:15:45.694Z,950.76
2022-08-14T08:16:45.696Z,950.76
2022-08-14T08:17:53.638Z,950.74
2022-08-14T08:18:45.702Z,950.72
2022-08-14T08:19:45.703Z,950.72
2022-08-14T08:20:52.111Z,950.74
2022-08-14T08:21:45.705Z,950.75
2022-08-14T08:22:45.710Z,950.76
2022-08-14T08:23:51.048Z,950.78
2022-08-14T08:24:45.715Z,950.81
2022-08-14T08:25:45.715Z,950.79
2022-08-14T08:26:45.718Z,950.79
2022-08-14T08:27:45.717Z,950.8
2022-08-14T08:28:45.721Z,950.84
2022-08-14T08:29:50.947Z,950.84
2022-08-14T08:30:49.742Z,950.83
2022-08-14T08:31:48.831Z,950.84
2022-08-14T08:32:46.372Z,950.81
2022-08-14T08:33:49.487Z,950.79
2022-08-14T08:34:46.258Z,950.79
2022-08-14T08:35:50.553Z,950.75
2022-08-14T08:36:46.450Z,950.74
2022-08-14T08:37:46.236Z,950.74
2022-08-14T08:40:01.313Z,950.77
2022-08-14T08:40:32.588Z,950.75
2022-08-14T08:41:32.415Z,950.76
2022-08-14T08:42:38.553Z,950.72
2022-08-14T08:43:32.417Z,950.68
2022-08-14T08:44:34.414Z,950.67
2022-08-14T08:45:32.420Z,950.67
2022-08-14T08:46:32.419Z,950.61
2022-08-14T08:47:32.421Z,950.58
2022-08-14T08:48:36.436Z,950.63
2022-08-14T08:49:36.029Z,950.6
2022-08-14T08:51:33.360Z,950.52
2022-08-14T08:52:32.453Z,950.48
2022-08-14T08:53:32.428Z,950.47
2022-08-14T08:54:32.429Z,950.5
2022-08-14T08:55:32.431Z,950.51
2022-08-14T08:56:39.780Z,950.5
2022-08-14T08:57:32.435Z,950.45
2022-08-14T08:58:32.433Z,950.52
2022-08-14T08:59:34.168Z,950.46
2022-08-14T09:00:32.472Z,950.36
2022-08-14T09:01:32.440Z,950.37
2022-08-14T09:02:32.443Z,950.35
2022-08-14T09:03:32.444Z,950.34
2022-08-14T09:04:32.445Z,950.35
2022-08-14T09:05:32.445Z,950.32
2022-08-14T09:06:54.494Z,950.25
2022-08-14T09:07:32.448Z,950.27
2022-08-14T09:08:33.168Z,950.23
2022-08-14T09:09:33.249Z,950.23
2022-08-14T09:10:32.457Z,950.2
2022-08-14T09:11:32.457Z,950.21
2022-08-14T09:12:33.162Z,950.2
2022-08-14T09:13:33.046Z,950.24
2022-08-14T09:14:32.463Z,950.21
2022-08-14T09:15:36.737Z,950.24
2022-08-14T09:16:32.467Z,950.25
2022-08-14T09:17:32.468Z,950.24
2022-08-14T09:18:32.473Z,950.24
2022-08-14T09:19:32.471Z,950.17
2022-08-14T09:20:32.476Z,950.19
2022-08-14T09:21:32.475Z,950.13
2022-08-14T09:22:33.218Z,950.12
2022-08-14T09:23:34.728Z,950.15
2022-08-14T09:24:46.736Z,950.11
2022-08-14T09:25:58.550Z,950.12
2022-08-14T09:26:49.095Z,950.12
2022-08-14T09:27:46.739Z,950.12
2022-08-14T09:28:46.743Z,950.03
2022-08-14T09:29:54.305Z,950.09
2022-08-14T09:30:46.747Z,950.12
2022-08-14T09:31:53.077Z,950.1
2022-08-14T09:33:12.471Z,950.07
2022-08-14T09:34:19.936Z,950.09
2022-08-14T09:35:10.808Z,950.06
2022-08-14T09:36:10.807Z,950.06
2022-08-14T09:37:10.811Z,950.06
2022-08-14T09:38:15.584Z,950.06
2022-08-14T09:39:14.972Z,950.09
2022-08-14T09:40:10.816Z,950.04
2022-08-14T09:41:11.771Z,950.06
2022-08-14T09:42:17.938Z,950.08
2022-08-14T09:43:10.823Z,950.07
2022-08-14T09:44:10.823Z,950.08
2022-08-14T09:45:11.556Z,950.07
2022-08-14T09:46:11.549Z,950.04
2022-08-14T09:47:11.553Z,950.02
2022-08-14T09:48:11.553Z,949.99
2022-08-14T09:49:16.356Z,949.96
2022-08-14T09:50:12.106Z,949.97
2022-08-14T09:51:12.110Z,949.88
2022-08-14T09:52:23.886Z,949.94
2022-08-14T09:53:18.286Z,949.94
2022-08-14T09:54:29.981Z,949.99
2022-08-14T09:55:32.322Z,949.95
2022-08-14T09:56:30.772Z,949.96
2022-08-14T09:57:29.989Z,950
2022-08-14T09:58:29.994Z,949.98
2022-08-14T09:59:32.241Z,949.96
2022-08-14T10:00:30.648Z,949.98
2022-08-14T10:01:29.997Z,950
2022-08-14T10:02:30.083Z,950
2022-08-14T10:03:30.003Z,949.98
2022-08-14T10:04:33.232Z,949.95
2022-08-14T10:05:30.008Z,949.95
2022-08-14T10:06:30.013Z,949.92
2022-08-14T10:07:30.012Z,949.88
2022-08-14T10:08:30.019Z,949.83
2022-08-14T10:09:33.678Z,949.84
2022-08-14T10:10:30.023Z,949.83
2022-08-14T10:11:31.159Z,949.82
2022-08-14T10:12:30.027Z,949.82
2022-08-14T10:13:30.497Z,949.82
2022-08-14T10:14:34.851Z,949.79
2022-08-14T10:15:30.257Z,949.77
2022-08-14T10:16:33.822Z,949.75
2022-08-14T10:17:32.996Z,949.72
2022-08-14T10:18:30.354Z,949.72
2022-08-14T10:19:30.353Z,949.74
2022-08-14T10:20:39.223Z,949.69
2022-08-14T10:21:30.359Z,949.72
2022-08-14T10:23:36.815Z,949.72
2022-08-14T10:24:37.723Z,949.68
2022-08-14T10:25:36.820Z,949.64
2022-08-14T10:26:36.821Z,949.63
2022-08-14T10:27:36.824Z,949.61
2022-08-14T10:28:39.799Z,949.66
2022-08-14T10:29:36.826Z,949.6
2022-08-14T10:30:36.829Z,949.67
2022-08-14T10:31:40.432Z,949.67
2022-08-14T10:32:41.961Z,949.66
2022-08-14T10:33:37.310Z,949.68
2022-08-14T10:34:38.757Z,949.68
2022-08-14T10:35:37.315Z,949.71
2022-08-14T10:36:40.859Z,949.66
2022-08-14T10:37:37.318Z,949.67
2022-08-14T10:38:37.318Z,949.67
2022-08-14T10:39:37.384Z,949.64
2022-08-14T10:40:59.298Z,949.62
2022-08-14T10:41:53.901Z,949.67
2022-08-14T10:42:53.446Z,949.65
2022-08-14T10:43:53.450Z,949.65
2022-08-14T10:44:53.449Z,949.6
2022-08-14T10:45:59.585Z,949.65
2022-08-14T10:48:47.149Z,949.5
2022-08-14T10:49:47.184Z,949.5
2022-08-14T10:50:47.131Z,949.41
2022-08-14T10:51:47.131Z,949.41
2022-08-14T10:52:47.318Z,949.42
2022-08-14T10:53:47.136Z,949.42
2022-08-14T10:54:47.486Z,949.4
2022-08-14T10:55:47.138Z,949.35
2022-08-14T10:56:47.142Z,949.37
2022-08-14T10:57:47.143Z,949.37
2022-08-14T10:58:47.146Z,949.38
2022-08-14T10:59:47.145Z,949.35
2022-08-14T11:00:47.402Z,949.39
2022-08-14T11:01:47.149Z,949.38
2022-08-14T11:02:53.915Z,949.38
2022-08-14T11:03:56.555Z,949.39
2022-08-14T11:04:47.177Z,949.42
2022-08-14T11:05:47.261Z,949.38
2022-08-14T11:06:47.162Z,949.46
2022-08-14T11:07:47.163Z,949.38
2022-08-14T11:08:47.165Z,949.42
2022-08-14T11:09:47.166Z,949.43
2022-08-14T11:10:47.169Z,949.43
2022-08-14T11:11:47.170Z,949.4
2022-08-14T11:12:49.194Z,949.36
2022-08-14T11:13:49.067Z,949.39
2022-08-14T11:14:49.070Z,949.35
2022-08-14T11:15:49.278Z,949.37
2022-08-14T11:16:49.137Z,949.38
2022-08-14T11:17:49.075Z,949.4
2022-08-14T11:18:50.674Z,949.42
2022-08-14T11:19:51.481Z,949.38
2022-08-14T11:20:49.108Z,949.31
2022-08-14T11:21:49.083Z,949.31
2022-08-14T11:22:52.281Z,949.32
2022-08-14T11:23:49.087Z,949.28
2022-08-14T11:24:57.021Z,949.24
2022-08-14T11:25:57.021Z,949.24
2022-08-14T11:26:57.024Z,949.2
2022-08-14T11:27:57.026Z,949.2
2022-08-14T11:28:57.032Z,949.18
2022-08-14T11:30:00.267Z,949.23
2022-08-14T11:31:05.025Z,949.21
2022-08-14T11:32:05.026Z,949.21
2022-08-14T11:33:05.030Z,949.18
2022-08-14T11:34:05.031Z,949.2
2022-08-14T11:35:05.886Z,949.18
2022-08-14T11:36:05.039Z,949.2
2022-08-14T11:37:36.494Z,949.14
2022-08-14T11:38:23.832Z,949.18
2022-08-14T11:39:33.368Z,949.18
2022-08-14T11:40:24.411Z,949.15
2022-08-14T11:41:24.675Z,949.15
2022-08-14T11:42:55.976Z,949.14
2022-08-14T11:43:29.332Z,949.07
2022-08-14T11:44:45.207Z,949.08
2022-08-14T11:45:23.854Z,949.1
2022-08-14T11:46:30.101Z,949.1
2022-08-14T11:47:23.860Z,949.07
2022-08-14T11:49:07.512Z,949.06
2022-08-14T11:50:07.494Z,949.04
2022-08-14T11:51:07.476Z,948.99
2022-08-14T11:52:07.466Z,948.99
2022-08-14T11:53:07.633Z,949.05
2022-08-14T11:54:08.156Z,948.98
2022-08-14T11:55:07.478Z,948.95
2022-08-14T11:56:07.479Z,948.97
2022-08-14T11:57:07.483Z,948.98
2022-08-14T11:58:07.485Z,948.94
2022-08-14T11:59:10.031Z,948.94
2022-08-14T12:00:08.442Z,948.92
2022-08-14T12:01:07.495Z,948.9
2022-08-14T12:02:07.496Z,948.93
2022-08-14T12:03:16.290Z,948.96
2022-08-14T12:04:21.986Z,948.92
2022-08-14T12:05:14.759Z,948.87
2022-08-14T12:06:28.247Z,948.9
2022-08-14T12:07:14.735Z,948.86
2022-08-14T12:08:14.734Z,948.84
2022-08-14T12:09:15.083Z,948.86
2022-08-14T12:10:25.796Z,948.86
2022-08-14T12:11:14.744Z,948.88
2022-08-14T12:12:16.232Z,948.91
2022-08-14T12:13:14.749Z,948.9
2022-08-14T12:14:29.536Z,948.89
2022-08-14T12:15:14.754Z,948.92
2022-08-14T12:16:15.211Z,948.89
2022-08-14T12:17:14.761Z,948.92
2022-08-14T12:18:19.408Z,948.83
2022-08-14T12:19:14.765Z,948.87
2022-08-14T12:20:14.814Z,948.81
2022-08-14T12:21:15.683Z,948.79
2022-08-14T12:22:17.631Z,948.77
2022-08-14T12:23:14.776Z,948.76
2022-08-14T12:24:32.028Z,948.8
2022-08-14T12:25:14.779Z,948.81
2022-08-14T12:26:32.226Z,948.73
2022-08-14T12:27:16.852Z,948.73
2022-08-14T12:28:26.791Z,948.71
2022-08-14T12:29:14.961Z,948.71
2022-08-14T12:30:14.961Z,948.71
2022-08-14T12:31:14.966Z,948.68
2022-08-14T12:32:14.966Z,948.69
2022-08-14T12:33:14.970Z,948.66
2022-08-14T12:34:14.973Z,948.64
2022-08-14T12:35:14.973Z,948.64
2022-08-14T12:36:20.606Z,948.66
2022-08-14T12:37:14.979Z,948.63
2022-08-14T12:38:19.267Z,948.62
2022-08-14T12:39:14.983Z,948.64
2022-08-14T12:40:15.641Z,948.64
2022-08-14T12:41:16.402Z,948.63
2022-08-14T12:42:27.071Z,948.59
2022-08-14T12:43:14.995Z,948.59
2022-08-14T12:44:14.998Z,948.67
2022-08-14T12:45:16.727Z,948.61
2022-08-14T12:46:22.501Z,948.59
2022-08-14T12:47:15.220Z,948.6
2022-08-14T12:48:20.897Z,948.57
2022-08-14T12:49:16.060Z,948.5
2022-08-14T12:50:15.015Z,948.48
2022-08-14T12:51:15.015Z,948.44
2022-08-14T12:52:17.122Z,948.45
2022-08-14T12:53:19.103Z,948.41
2022-08-14T12:54:19.459Z,948.41
2022-08-14T12:55:19.104Z,948.4
2022-08-14T12:56:38.521Z,948.42
2022-08-14T12:57:38.523Z,948.41
2022-08-14T12:58:52.191Z,948.38
2022-08-14T12:59:42.553Z,948.37
2022-08-14T13:00:45.869Z,948.36
2022-08-14T13:02:00.528Z,948.38
2022-08-14T13:02:38.611Z,948.35
2022-08-14T13:03:38.538Z,948.34
2022-08-14T13:04:38.542Z,948.35
2022-08-14T13:05:38.543Z,948.3
2022-08-14T13:06:38.548Z,948.31
2022-08-14T13:07:38.550Z,948.27